Boncarbo, Colorado
Current Conditions -  °F | °C
As of 6:54 AM on Saturday 25 Oct 2014 (Local Time) from KTAD Reporting Station
Clear Clear  
Wind Chill:   Ceiling: Unl
Heat Index:   Visibility: 10mi
Dew Point: -3°   Wind: 16mph
Humidity: 41%   Direction: 240°WSW
Pressure: 30.25"   Gusts: NA
Location:  37.22°N, 104.7°W
Report Text: KTAD 251254Z AUTO 24014KT 10SM CLR 09/M03 A3025 RMK AO2 SLP185 T00941033
Loading
Personal Weather Stations






























Interactive Weather Map
Tropical Storm Tracking
New forecast layout! Learn more

10-Day Weather Forecast

Advertisements
Track Severe Weather on mobile